Share

Royal Center, IN (46978)

Logansport Municipal (KGGP) Elev 738 ft | 40.71 °N, 86.37 °W | Change Station

Current weather conditions updated 16 minutes ago

Clear
Clear
50 °F
Feels Like 50 °F
N
6
Wind Variable Wind from SSE
Sunrise 6:58 AM
Sunset 8:31 PM
Moon Waning Gibbous

Today is forecast to be Warmer than yesterday. Rain tonight.

Pressure 30.07 in
Visibility 10.0 miles
Clouds Clear
Dew Point 36 °F
Humidity 58%
Rainfall 0.00 in
Snow Depth Not available.
UV 0 out of 16
Pollen 11.50 out of 12
Air Quality Not available.
Flu Activity Sporadic
METAR KGGP 210615Z AUTO 15005KT 10SM CLR 10/02 A3007 RMK AO2

More Conditions Fewer Conditions

Pressure 30.07 in
Visibility 10.0 miles
Clouds Clear
Dew Point 36 °F
Humidity 58%
Rainfall 0.00 in
Snow Depth Not available.
UV 0 out of 16
Pollen 11.50 out of 12
Air Quality Not available.
Flu Activity Sporadic
METAR KGGP 210615Z AUTO 15005KT 10SM CLR 10/02 A3007 RMK AO2

More Conditions Fewer Conditions

10-Day Weather Forecast

Almanac

Astronomy

Apr. 21, 2014 Rise Set
Actual Time 6:58 AM EDT 8:31 PM EDT
Civil Twilight 6:29 AM EDT 9:00 PM EDT
Nautical Twilight 5:54 AM EDT 9:35 PM EDT
Astronomical Twilight 5:17 AM EDT 10:13 PM EDT
Moon 2:02 AM EDT 12:23 PM EDT
Length of Visible Light 14h 31m
Length of Day
13h 33m
Tomorrow will be 2m 30s longer.
Waning Gibbous, 62% of the Moon is Illuminated
Today
Waning Gibbous
Apr 22
Last Quarter
Apr 29
New
May 6
First Quarter
May 14
Full

Today's Extremes

State Highs State Lows

Community

  • Snowy Robin
    Snowy Robin
  • Sun Pillar and Geese
    Sun Pillar and Geese
  • Showers on the Way
    Showers on the Way
  • Easter Morning Fog
    Easter Morning Fog
  • Easter Dance
    Easter Dance

WunderPhotos

Upload Photos

1,703,570 photos uploaded!

WunderBlogs® & News

Nearby

Snow Depth

Station Depth Elevation
No new snow has been reported.

Coastal Water Temperatures

Place Temperature
No Stations Reporting

Earthquake Activity

City Distance Mag. Time & Date
No recent earthquake activity has been reported nearby.
Minimum magnitude displayed is 2.5.

Nearby Weather Stations

Station Location Temp. Windchill Dew Point Humidity Wind Precip. Elev Updated Type
Windsor Forest, Logansport, IN 48.0 °F 48 °F 46 °F 91% SSW  at  0.0 mph 0.00 in / hr 669 ft 2:31 AM EDT Rapid Fire
Bluewater Drive, Monticello, IN 50.9 °F - 50 °F 98% ESE  at  0.0 mph - / hr 623 ft 2:20 AM EDT Normal
400 west, Rochester, IN 52.4 °F - 38 °F 57% SE  at  0.0 mph 0.00 in / hr 745 ft 2:31 AM EDT Rapid Fire
4th Street, Rochester, IN 55.9 °F - 36 °F 47% SSE  at  0.0 mph 0.00 in / hr 781 ft 2:28 AM EDT Normal
Carroll Jr/Sr High School, Flora, IN 55.9 °F - -7 °F 7% SSE  at  4.4 mph 0.00 in / hr 715 ft 2:31 AM EDT Normal
Bad B-rad's Weather Pad, Galveston, IN 55.0 °F - 38 °F 52% South  at  2.2 mph 0.00 in / hr 761 ft 2:31 AM EDT Rapid Fire

Show More Stations Show Fewer Stations

What do you think?

We're not finished. Please let us know what you like, what you don't like, and what you are still missing.